METAR AND TAF INFORMATION
METAR FOR TFFR
ADDS - METARS form results

(0034 UTC 05 June 2020)
Data provider http://aviationweather.gov/metar/data/
 
METAR text: TFFR 050030Z AUTO 08008KT CAVOK 26/23 Q1017 NOSIG
Conditions at: TFFR (LE RAIZET , GP) observed 0030 UTC 05 June 2020
Temperature: 26.0°C (79°F)
Dewpoint: 23.0°C (73°F) [RH = 84%]
Pressure (altimeter): 30.03 inches Hg (1017.0 mb)
Winds: from the E (80 degrees) at 9 MPH (8 knots; 4.1 m/s)
Visibility: 6 or more miles (10+ km)
Ceiling: ceiling and visibility are OK
Clouds: unknown
Weather: no significant weather observed at this time

METAR text: TFFR 050000Z AUTO 09007KT CAVOK 27/23 Q1017 NOSIG
Conditions at: TFFR (LE RAIZET , GP) observed 0000 UTC 05 June 2020
Temperature: 27.0°C (81°F)
Dewpoint: 23.0°C (73°F) [RH = 79%]
Pressure (altimeter): 30.03 inches Hg (1017.0 mb)
Winds: from the E (90 degrees) at 8 MPH (7 knots; 3.6 m/s)
Visibility: 6 or more miles (10+ km)
Ceiling: ceiling and visibility are OK
Clouds: unknown
Weather: no significant weather observed at this time

Forecast for: TFFR (LE RAIZET , GP)
Text: TAF TFFR 042200Z 0500/0524 09010KT 9999 SCT030 SCT050
Forecast period: 0000 UTC 05 June 2020 to 0000 UTC 06 June 2020
Forecast type: FROM: standard forecast or significant change
Winds: from the E (90 degrees) at 12 MPH (10 knots; 5.1 m/s)
Visibility: 6 or more miles 10+ km)
Ceiling: at least 12,000 feet AGL
Clouds: scattered clouds at 3000 feet AGL
scattered clouds at 5000 feet AGL
Weather: no significant weather forecast for this period
Text: TEMPO 0505/0510 4000 SHRA SCT018TCU
Forecast period: 0500 to 1000 UTC 05 June 2020
Forecast type: TEMPORARY: The following changes expected for less than half the time period
Visibility: 2.49 miles (4.01 km)
Ceiling: at least 12,000 feet AGL
Clouds: scattered clouds at 1800 feet AGL
Weather: SHRA  (rain showers)

 AIRPORT MAP

 RUNWAY INFORMATION
Runway 12 Runway length 11499 ft Runway width 148 ft
Runway elevation 5 ft Runway displaced threshold 1312 ft Runway heading 101
Runway 30 Runway length 11499 ft Runway width 148 ft
Runway elevation 32 ft Runway displaced threshold 820 ft Runway heading 281

 AIRPORT FREQUENCIES
Type APP Name RAIZET APP Frequency 121.3 MHZ
Type ATIS Name ATIS Frequency 127.6 MHZ
Type GND Name GND Frequency 121.85 MHZ
Type TWR Name RAIZET TWR Frequency 118.4 MHZ

 AIRPORT NEAR NAVIGATION AIDS
Type VOR-DME Name Pointe A Pitre Frequency 112900 KHZ
Type NDB Name Pointe A Pitre Frequency 385 KHZ